Time;durP1;ratioP1;P1;durP2;ratioP2;P2;SDS_P1;SDS_P2;PMS_P1;PMS_P2;Temp;Humidity;BMP_temperature;BMP_pressure;BME280_temperature;BME280_humidity;BME280_pressure;Samples;Min_cycle;Max_cycle;Signal;HPM_P1;HPM_P2
2021/06/13 00:00:23;;;;;;;3.83;3.43;;;;;;;13.54;78.91;96564.83;127551;1093;24626;-92
2021/06/13 00:03:14;;;;;;;4.43;3.40;;;;;;;13.49;78.76;96548.15;127375;1093;113672;-93
2021/06/13 00:05:45;;;;;;;2.83;2.38;;;;;;;13.42;78.80;96543.23;127470;1092;22934;-93
2021/06/13 00:08:16;;;;;;;4.83;3.08;;;;;;;13.38;78.53;96558.23;127318;1092;114404;-96
2021/06/13 00:10:47;;;;;;;5.53;3.30;;;;;;;13.33;78.50;96560.98;127458;1093;48750;-93
2021/06/13 00:13:18;;;;;;;4.05;2.88;;;;;;;13.31;78.43;96563.95;127458;1092;23332;-94
2021/06/13 00:15:49;;;;;;;3.98;3.50;;;;;;;13.31;78.42;96565.83;127365;1092;114002;-95
2021/06/13 00:18:20;;;;;;;6.10;3.80;;;;;;;13.27;78.41;96564.84;127508;1093;22828;-91
2021/06/13 00:20:53;;;;;;;5.13;3.50;;;;;;;13.24;78.53;96568.11;127414;1093;113516;-93
2021/06/13 00:23:24;;;;;;;6.68;3.33;;;;;;;13.21;78.52;96563.34;127634;1093;23418;-91
2021/06/13 00:25:55;;;;;;;4.33;3.15;;;;;;;13.19;78.77;96557.53;127512;1092;113722;-92
2021/06/13 00:28:26;;;;;;;4.98;3.18;;;;;;;13.16;78.66;96566.09;127565;1093;25197;-93
2021/06/13 00:30:57;;;;;;;3.98;3.18;;;;;;;13.14;78.85;96558.41;127580;1093;29232;-94
2021/06/13 00:33:28;;;;;;;5.33;3.83;;;;;;;13.12;78.73;96551.80;127413;1093;113947;-94
2021/06/13 00:35:59;;;;;;;4.85;3.70;;;;;;;13.13;78.98;96556.04;127690;1093;28042;-92
2021/06/13 00:38:30;;;;;;;6.08;3.45;;;;;;;13.11;78.88;96547.56;127479;1093;113677;-93
2021/06/13 00:41:00;;;;;;;3.80;3.40;;;;;;;13.08;79.13;96536.39;127602;1093;31809;-93
2021/06/13 00:43:31;;;;;;;5.97;3.47;;;;;;;13.06;79.00;96549.22;127686;1093;25926;-93
2021/06/13 00:46:02;;;;;;;4.68;3.70;;;;;;;13.05;79.04;96539.66;127370;1093;113990;-94
2021/06/13 00:48:33;;;;;;;6.48;4.50;;;;;;;13.05;79.10;96542.31;127470;1093;24283;-93
2021/06/13 00:51:05;;;;;;;4.77;3.50;;;;;;;13.06;79.00;96535.13;127468;1093;114077;-95
2021/06/13 00:53:36;;;;;;;3.83;2.85;;;;;;;13.05;78.81;96538.87;127505;1093;29299;-95
2021/06/13 00:56:07;;;;;;;4.80;4.03;;;;;;;13.02;78.85;96539.47;127446;1093;114425;-93
2021/06/13 00:58:38;;;;;;;5.85;4.10;;;;;;;13.01;78.98;96533.36;127622;1093;25977;-94
2021/06/13 01:01:09;;;;;;;5.03;4.08;;;;;;;13.02;78.97;96534.14;127613;1093;23694;-94
2021/06/13 01:03:40;;;;;;;8.30;4.08;;;;;;;13.03;79.08;96536.50;127791;1092;113991;-93
2021/06/13 01:06:11;;;;;;;5.90;3.93;;;;;;;13.05;79.10;96510.38;127869;1093;47511;-95
2021/06/13 01:08:48;;;;;;;5.60;3.43;;;;;;;13.04;79.04;96534.63;127764;1093;114330;-93
2021/06/13 01:11:29;;;;;;;4.28;3.68;;;;;;;13.05;79.08;96531.67;127896;1092;27204;-93
2021/06/13 01:14:09;;;;;;;3.98;3.38;;;;;;;13.07;79.05;96521.52;127829;1092;113678;-91
2021/06/13 01:16:47;;;;;;;8.28;3.90;;;;;;;13.08;79.31;96517.77;127924;1093;24295;-90
2021/06/13 01:19:44;;;;;;;5.73;3.23;;;;;;;13.07;79.13;96521.52;127880;1093;22788;-92
2021/06/13 01:22:38;;;;;;;4.07;3.67;;;;;;;13.07;79.18;96529.50;127766;1093;114019;-91
2021/06/13 01:25:28;;;;;;;5.45;3.75;;;;;;;13.09;79.31;96531.89;127697;1093;26260;-91
2021/06/13 01:28:28;;;;;;;5.63;3.20;;;;;;;13.08;79.34;96536.39;127801;1092;114270;-91
2021/06/13 01:31:02;;;;;;;8.40;3.70;;;;;;;13.09;79.10;96529.23;127890;1093;23015;-90
2021/06/13 01:33:34;;;;;;;5.25;3.98;;;;;;;13.08;79.03;96522.30;127870;1093;113866;-91
2021/06/13 01:36:08;;;;;;;4.25;3.40;;;;;;;13.06;78.98;96503.97;127897;1093;24440;-92
2021/06/13 01:38:40;;;;;;;5.30;4.13;;;;;;;13.07;78.87;96520.73;127820;1093;114202;-92
2021/06/13 01:41:14;;;;;;;4.88;3.68;;;;;;;13.06;78.81;96525.27;127908;1093;26306;-92
2021/06/13 01:43:46;;;;;;;6.50;4.10;;;;;;;13.06;78.62;96517.28;127892;1091;22820;-92
2021/06/13 01:46:20;;;;;;;4.00;3.50;;;;;;;13.07;78.70;96520.73;127786;1092;113345;-94
2021/06/13 01:48:53;;;;;;;6.20;3.50;;;;;;;13.05;78.83;96525.56;127976;1093;24239;-92
2021/06/13 01:51:24;;;;;;;5.98;3.73;;;;;;;13.02;78.66;96513.64;127862;1093;114134;-93
2021/06/13 01:53:55;;;;;;;5.83;3.28;;;;;;;13.01;78.68;96522.70;127894;1093;25495;-93
2021/06/13 01:56:27;;;;;;;6.23;3.90;;;;;;;13.00;78.62;96515.81;127761;1093;113701;-91
2021/06/13 01:58:59;;;;;;;4.00;3.50;;;;;;;12.99;78.69;96524.88;127929;1093;23912;-91
2021/06/13 02:01:32;;;;;;;5.40;3.90;;;;;;;12.98;78.73;96515.33;127896;1093;24140;-91
2021/06/13 02:04:04;;;;;;;5.18;4.03;;;;;;;13.00;78.90;96523.80;127846;1093;114211;-91
2021/06/13 02:06:37;;;;;;;5.58;3.90;;;;;;;12.97;79.25;96511.09;127915;1093;26382;-91
2021/06/13 02:09:10;;;;;;;4.85;3.78;;;;;;;12.95;79.24;96523.91;127802;1093;113630;-90
2021/06/13 02:11:45;;;;;;;6.05;4.30;;;;;;;12.95;79.33;96534.55;127919;1093;22804;-93
2021/06/13 02:14:19;;;;;;;5.00;4.10;;;;;;;12.97;79.39;96521.73;127793;1093;113962;-91
2021/06/13 02:16:51;;;;;;;4.60;3.70;;;;;;;12.99;79.30;96514.23;127956;1093;24994;-92
2021/06/13 02:19:24;;;;;;;6.70;4.30;;;;;;;12.97;79.22;96527.05;127963;1093;22826;-91
2021/06/13 02:21:58;;;;;;;6.20;3.80;;;;;;;12.95;79.19;96510.59;127777;1091;114028;-90
2021/06/13 02:24:32;;;;;;;5.15;3.98;;;;;;;12.90;79.23;96531.17;127863;1093;25885;-94
2021/06/13 02:27:04;;;;;;;4.30;3.43;;;;;;;12.86;79.14;96515.02;127793;1093;113612;-94
2021/06/13 02:29:40;;;;;;;6.05;3.20;;;;;;;12.79;79.23;96520.70;127880;1093;25693;-95
2021/06/13 02:32:15;;;;;;;4.98;3.85;;;;;;;12.68;79.22;96551.26;127755;1093;113840;-95
2021/06/13 02:34:48;;;;;;;3.97;3.00;;;;;;;12.69;79.33;96526.23;127914;1093;26683;-93
2021/06/13 02:37:21;;;;;;;3.67;3.17;;;;;;;12.69;79.28;96554.70;127881;1093;27182;-91
2021/06/13 02:39:54;;;;;;;3.15;2.75;;;;;;;12.65;79.09;96540.39;127862;1093;113529;-91
2021/06/13 02:42:25;;;;;;;6.05;2.73;;;;;;;12.62;78.94;96560.38;127867;1092;24912;-94
2021/06/13 02:44:57;;;;;;;3.33;2.30;;;;;;;12.61;78.55;96572.11;127782;1092;113776;-93
2021/06/13 02:47:28;;;;;;;5.13;2.07;;;;;;;12.62;78.45;96551.63;127885;1091;24801;-93
2021/06/13 02:50:00;;;;;;;2.30;1.58;;;;;;;12.58;77.85;96561.27;127784;1093;113788;-92
2021/06/13 02:52:44;;;;;;;2.77;2.20;;;;;;;12.53;77.52;96569.31;127936;1093;22843;-93
2021/06/13 02:55:22;;;;;;;2.97;1.90;;;;;;;12.48;77.52;96568.33;127898;1093;33597;-93
2021/06/13 02:58:00;;;;;;;2.30;1.55;;;;;;;12.49;77.59;96575.22;127884;1093;113782;-93
2021/06/13 03:00:32;;;;;;;2.15;1.95;;;;;;;12.50;77.49;96581.33;127955;1093;24532;-93
2021/06/13 03:03:04;;;;;;;3.55;2.23;;;;;;;12.52;77.26;96584.48;127834;1091;113632;-94
2021/06/13 03:05:35;;;;;;;3.83;2.45;;;;;;;12.54;77.13;96592.20;127896;1093;22835;-94
2021/06/13 03:08:09;;;;;;;2.40;2.18;;;;;;;12.47;76.98;96596.00;127830;1093;113699;-92
2021/06/13 03:10:41;;;;;;;2.98;2.00;;;;;;;12.43;76.99;96597.66;127913;1093;25083;-94
2021/06/13 03:13:12;;;;;;;2.75;2.20;;;;;;;12.42;77.02;96605.94;127871;1092;24984;-92
2021/06/13 03:15:45;;;;;;;2.50;2.08;;;;;;;12.37;76.86;96606.78;127865;1092;113984;-92
2021/06/13 03:18:16;;;;;;;2.65;2.45;;;;;;;12.36;76.93;96620.36;127925;1093;24454;-91
2021/06/13 03:20:50;;;;;;;3.85;2.35;;;;;;;12.35;76.92;96626.77;127818;1093;114526;-93
2021/06/13 03:23:22;;;;;;;2.93;2.43;;;;;;;12.32;77.04;96632.66;127967;1093;22842;-92
2021/06/13 03:25:54;;;;;;;2.30;2.08;;;;;;;12.31;77.20;96631.88;127840;1092;113781;-93
2021/06/13 03:28:26;;;;;;;3.97;2.70;;;;;;;12.31;77.32;96625.77;127919;1093;23809;-89
2021/06/13 03:30:58;;;;;;;3.40;2.75;;;;;;;12.28;77.50;96631.67;127913;1092;24429;-91
2021/06/13 03:33:32;;;;;;;3.28;2.70;;;;;;;12.26;77.59;96634.62;127856;1093;113603;-91
2021/06/13 03:36:05;;;;;;;4.93;3.03;;;;;;;12.25;77.70;96648.20;127983;1093;23035;-92
2021/06/13 03:38:38;;;;;;;4.50;3.30;;;;;;;12.25;77.76;96650.86;127821;1093;113728;-91
2021/06/13 03:41:13;;;;;;;5.60;2.85;;;;;;;12.23;78.18;96667.06;127915;1093;29232;-92
2021/06/13 03:43:46;;;;;;;5.68;2.95;;;;;;;12.21;78.03;96671.09;127873;1093;29861;-92
2021/06/13 03:46:20;;;;;;;4.05;3.33;;;;;;;12.28;78.10;96674.98;127808;1091;113895;-91
2021/06/13 03:48:54;;;;;;;4.83;3.00;;;;;;;12.28;77.82;96674.20;127966;1093;26359;-93
2021/06/13 03:51:27;;;;;;;5.10;3.20;;;;;;;12.28;77.60;96669.67;127855;1093;113906;-96
2021/06/13 03:54:01;;;;;;;5.20;3.65;;;;;;;12.25;77.52;96677.44;127882;1093;26261;-93
2021/06/13 03:56:37;;;;;;;3.65;3.18;;;;;;;12.23;77.51;96667.06;127844;1093;113643;-91
2021/06/13 03:59:10;;;;;;;6.30;3.30;;;;;;;12.21;77.57;96684.38;127879;1093;27303;-92
2021/06/13 04:01:44;;;;;;;5.00;3.25;;;;;;;12.13;77.59;96672.54;127887;1092;24857;-91
2021/06/13 04:04:20;;;;;;;5.23;3.10;;;;;;;12.11;77.77;96695.95;127813;1093;113577;-93
2021/06/13 04:06:53;;;;;;;4.50;3.15;;;;;;;12.08;77.63;96683.22;127969;1091;22783;-93
2021/06/13 04:09:25;;;;;;;7.08;3.80;;;;;;;12.06;77.68;96699.45;127848;1092;113709;-92
2021/06/13 04:11:58;;;;;;;4.40;3.18;;;;;;;12.05;77.68;96702.39;127907;1092;37475;-92
2021/06/13 04:14:30;;;;;;;4.13;2.85;;;;;;;12.09;77.59;96698.87;127794;1091;113675;-92
2021/06/13 04:17:03;;;;;;;4.53;3.28;;;;;;;12.08;77.46;96694.63;127898;1093;24965;-95
2021/06/13 04:19:36;;;;;;;6.43;3.60;;;;;;;12.04;77.47;96690.97;127915;1093;23968;-94
2021/06/13 04:22:10;;;;;;;5.95;3.83;;;;;;;11.93;77.24;96713.42;127804;1092;113659;-94
2021/06/13 04:24:42;;;;;;;6.13;3.45;;;;;;;11.93;77.12;96710.77;127882;1093;23829;-94
2021/06/13 04:27:14;;;;;;;6.05;3.40;;;;;;;11.91;76.93;96701.50;127798;1093;114032;-93
2021/06/13 04:29:46;;;;;;;5.73;3.45;;;;;;;11.89;76.84;96715.86;127928;1093;24886;-93
2021/06/13 04:32:20;;;;;;;5.93;3.43;;;;;;;11.87;76.70;96706.59;127803;1093;113817;-93
2021/06/13 04:34:51;;;;;;;4.70;3.48;;;;;;;11.92;76.85;96721.67;128000;1093;24725;-93
2021/06/13 04:37:23;;;;;;;5.73;3.75;;;;;;;11.97;76.89;96722.42;127956;1093;23471;-94
2021/06/13 04:39:54;;;;;;;4.98;3.18;;;;;;;12.00;76.81;96708.56;127840;1093;114328;-94
2021/06/13 04:42:26;;;;;;;4.53;3.18;;;;;;;12.03;76.74;96715.17;127875;1093;26129;-93
2021/06/13 04:44:58;;;;;;;4.98;3.33;;;;;;;11.99;76.66;96711.52;127784;1092;113509;-93
2021/06/13 04:47:29;;;;;;;7.80;4.10;;;;;;;11.96;76.78;96714.71;127913;1093;25394;-93
2021/06/13 04:50:02;;;;;;;5.25;3.20;;;;;;;12.00;76.53;96715.75;127720;1093;113612;-92
2021/06/13 04:52:36;;;;;;;5.80;4.05;;;;;;;11.96;76.67;96709.40;127914;1093;32709;-93
2021/06/13 04:55:32;;;;;;;6.68;4.83;;;;;;;11.86;76.95;96710.33;127890;1092;26788;-92
2021/06/13 04:58:20;;;;;;;8.75;4.15;;;;;;;11.86;76.88;96705.80;127829;1093;113426;-93
2021/06/13 05:00:51;;;;;;;4.78;3.65;;;;;;;11.88;76.88;96710.83;127971;1092;23706;-92
2021/06/13 05:03:23;;;;;;;4.80;3.10;;;;;;;11.89;77.05;96710.55;127859;1093;114188;-91
2021/06/13 05:05:55;;;;;;;5.50;3.40;;;;;;;11.94;76.74;96711.55;127930;1093;36852;-93
2021/06/13 05:08:28;;;;;;;6.35;3.03;;;;;;;11.92;77.00;96703.08;127835;1093;114072;-92
2021/06/13 05:11:00;;;;;;;5.30;3.65;;;;;;;11.88;77.20;96726.77;127895;1093;23910;-93
2021/06/13 05:13:31;;;;;;;4.88;2.88;;;;;;;11.93;77.19;96710.77;127896;1093;23141;-93
2021/06/13 05:16:03;;;;;;;5.18;3.03;;;;;;;11.97;77.41;96721.63;127803;1093;114448;-92
2021/06/13 05:18:34;;;;;;;5.83;3.43;;;;;;;12.06;77.38;96719.91;127877;1091;26417;-94
2021/06/13 05:21:07;;;;;;;5.43;3.85;;;;;;;12.09;77.49;96728.09;127803;1093;114027;-91
2021/06/13 05:23:38;;;;;;;5.43;3.48;;;;;;;12.12;77.31;96716.14;127883;1093;23656;-93
2021/06/13 05:26:09;;;;;;;9.23;3.88;;;;;;;12.12;77.37;96734.73;127792;1093;114523;-92
2021/06/13 05:28:41;;;;;;;5.48;3.25;;;;;;;12.11;77.30;96741.92;127938;1091;34902;-92
2021/06/13 05:31:13;;;;;;;8.10;4.05;;;;;;;12.10;77.40;96731.55;127888;1093;24572;-92
2021/06/13 05:33:44;;;;;;;6.77;3.40;;;;;;;12.11;77.50;96709.24;127818;1092;114146;-93
2021/06/13 05:36:16;;;;;;;5.73;4.20;;;;;;;12.08;77.47;96746.98;127894;1093;24618;-93
2021/06/13 05:38:47;;;;;;;7.48;4.00;;;;;;;12.14;77.71;96737.90;127796;1093;113515;-91
2021/06/13 05:41:19;;;;;;;6.23;3.58;;;;;;;12.17;77.32;96738.11;127818;1093;49508;-92
2021/06/13 05:43:51;;;;;;;6.03;3.85;;;;;;;12.18;77.37;96733.59;127905;1093;23002;-92
2021/06/13 05:46:24;;;;;;;6.00;3.65;;;;;;;12.15;77.41;96729.64;127871;1092;113526;-92
2021/06/13 05:48:55;;;;;;;5.93;4.03;;;;;;;12.20;77.36;96739.41;127948;1093;22841;-91
2021/06/13 05:51:27;;;;;;;6.75;4.68;;;;;;;12.21;77.43;96725.04;127770;1093;113700;-93
2021/06/13 05:53:58;;;;;;;7.78;4.38;;;;;;;12.17;77.33;96742.64;127914;1093;23518;-93
2021/06/13 05:56:30;;;;;;;6.17;3.67;;;;;;;12.23;77.29;96746.80;127808;1092;113908;-92
2021/06/13 05:59:01;;;;;;;7.83;4.00;;;;;;;12.30;77.43;96743.81;127928;1092;24842;-91
2021/06/13 06:01:33;;;;;;;5.98;3.85;;;;;;;12.30;77.24;96731.31;127922;1093;25286;-93
2021/06/13 06:04:05;;;;;;;4.85;3.48;;;;;;;12.22;77.62;96737.25;127804;1093;113547;-92
2021/06/13 06:06:37;;;;;;;5.70;3.53;;;;;;;12.18;77.57;96747.66;127873;1093;25076;-94
2021/06/13 06:09:08;;;;;;;7.60;3.20;;;;;;;12.26;77.87;96748.91;127798;1093;114296;-92
2021/06/13 06:11:42;;;;;;;7.95;3.80;;;;;;;12.43;77.91;96735.92;127903;1093;23077;-91
2021/06/13 06:14:14;;;;;;;8.18;4.00;;;;;;;12.54;77.53;96746.43;127754;1091;113858;-96
2021/06/13 06:16:46;;;;;;;7.13;3.65;;;;;;;12.95;78.30;96752.75;127903;1093;26426;-93
2021/06/13 06:19:18;;;;;;;7.00;2.98;;;;;;;13.20;76.91;96764.09;127917;1091;23617;-93
2021/06/13 06:21:49;;;;;;;5.30;3.38;;;;;;;13.16;75.94;96779.04;127790;1093;113524;-93
2021/06/13 06:24:21;;;;;;;6.90;3.60;;;;;;;13.07;75.59;96777.02;127941;1093;23079;-93
2021/06/13 06:26:52;;;;;;;4.57;2.83;;;;;;;13.00;75.51;96787.26;127837;1093;114192;-93
2021/06/13 06:29:24;;;;;;;11.43;5.97;;;;;;;12.77;75.20;96804.87;127977;1092;26300;-93
2021/06/13 06:31:55;;;;;;;5.35;2.70;;;;;;;12.59;75.55;96796.88;127969;1092;25906;-92
2021/06/13 06:34:30;;;;;;;9.57;5.77;;;;;;;12.56;75.87;96790.27;127978;1093;114068;-92
2021/06/13 06:37:02;;;;;;;6.30;2.88;;;;;;;12.42;75.95;96808.80;127898;1093;25567;-93
2021/06/13 06:39:34;;;;;;;4.83;2.70;;;;;;;12.46;76.07;96801.82;127786;1093;113826;-92
2021/06/13 06:42:06;;;;;;;4.00;2.83;;;;;;;12.44;76.33;96795.20;127907;1093;25455;-94
2021/06/13 06:44:37;;;;;;;3.63;2.38;;;;;;;12.47;76.04;96806.06;127780;1093;114348;-91
2021/06/13 06:47:09;;;;;;;3.48;2.08;;;;;;;12.54;76.07;96807.59;127948;1093;25127;-92
2021/06/13 06:49:41;;;;;;;4.18;2.58;;;;;;;12.63;76.21;96813.84;127898;1093;26486;-93
2021/06/13 06:52:12;;;;;;;5.03;2.30;;;;;;;12.96;76.35;96820.06;127774;1093;113595;-94
2021/06/13 06:54:44;;;;;;;4.77;2.27;;;;;;;13.22;76.64;96812.50;125022;1093;1772210;-94
2021/06/13 06:57:16;;;;;;;3.43;2.00;;;;;;;13.43;75.86;96805.00;127816;1093;113788;-94
2021/06/13 06:59:48;;;;;;;4.35;2.08;;;;;;;13.52;74.99;96809.38;127932;1093;25241;-90
2021/06/13 07:02:20;;;;;;;5.30;2.60;;;;;;;13.60;74.26;96807.91;127753;1093;113522;-94
2021/06/13 07:04:51;;;;;;;3.83;2.03;;;;;;;13.54;73.88;96799.22;127872;1093;25073;-96
2021/06/13 07:07:22;;;;;;;4.23;2.40;;;;;;;13.45;73.27;96814.28;127952;1093;24202;-93
2021/06/13 07:09:54;;;;;;;7.48;2.98;;;;;;;13.53;73.10;96804.84;127866;1092;113557;-91
2021/06/13 07:12:26;;;;;;;2.73;2.15;;;;;;;13.45;71.39;96811.62;127953;1092;51318;-88
2021/06/13 07:14:58;;;;;;;5.03;2.35;;;;;;;13.30;71.55;96817.98;127785;1093;114051;-91
2021/06/13 07:17:30;;;;;;;5.50;2.88;;;;;;;13.53;72.13;96810.17;127906;1093;25899;-93
2021/06/13 07:20:01;;;;;;;5.60;2.30;;;;;;;13.82;72.01;96813.40;128077;1093;25328;-92
2021/06/13 07:22:34;;;;;;;16.93;7.25;;;;;;;13.97;70.70;96815.00;127834;1092;114093;-90
2021/06/13 07:25:08;;;;;;;10.65;4.95;;;;;;;14.18;69.66;96808.19;127941;1093;38263;-90
2021/06/13 07:27:40;;;;;;;5.88;3.15;;;;;;;14.24;68.44;96815.02;127937;1093;114251;-89
2021/06/13 07:30:14;;;;;;;8.35;3.80;;;;;;;14.30;69.05;96814.91;127969;1093;22848;-90
2021/06/13 07:32:47;;;;;;;9.20;3.48;;;;;;;14.53;69.71;96825.41;127857;1093;113738;-95
2021/06/13 07:35:20;;;;;;;5.90;2.93;;;;;;;14.94;68.09;96821.10;127877;1092;22851;-90
2021/06/13 07:37:52;;;;;;;9.88;3.35;;;;;;;15.01;67.25;96800.10;127946;1093;22797;-91
2021/06/13 07:40:24;;;;;;;12.43;6.60;;;;;;;14.78;66.31;96816.09;127867;1092;113570;-91
2021/06/13 07:42:56;;;;;;;4.80;2.80;;;;;;;14.73;67.18;96805.51;127935;1092;26880;-91
2021/06/13 07:45:29;;;;;;;5.40;2.50;;;;;;;14.79;66.64;96793.66;127790;1092;114234;-90
2021/06/13 07:48:02;;;;;;;5.23;2.93;;;;;;;14.46;65.65;96817.00;127882;1092;22793;-91
2021/06/13 07:50:33;;;;;;;5.53;2.60;;;;;;;14.29;66.47;96808.00;127800;1093;114179;-89
2021/06/13 07:53:05;;;;;;;7.58;3.78;;;;;;;14.14;66.86;96822.41;127922;1092;22819;-89
2021/06/13 07:55:37;;;;;;;5.13;2.75;;;;;;;14.03;67.50;96837.01;127924;1093;22899;-89
2021/06/13 07:58:10;;;;;;;4.75;2.50;;;;;;;14.01;66.80;96831.98;127781;1093;113568;-90
2021/06/13 08:00:42;;;;;;;4.58;2.28;;;;;;;13.73;66.99;96841.00;127917;1093;22799;-91
2021/06/13 08:03:14;;;;;;;9.85;2.68;;;;;;;13.60;66.91;96859.31;127757;1092;115194;-90
2021/06/13 08:05:45;;;;;;;8.60;3.28;;;;;;;13.54;67.54;96854.37;127878;1092;22841;-89
2021/06/13 08:08:17;;;;;;;5.95;2.50;;;;;;;13.47;67.63;96792.67;127776;1093;114065;-91
2021/06/13 08:10:49;;;;;;;5.43;2.98;;;;;;;13.46;67.47;96855.81;127944;1093;25906;-90
2021/06/13 08:13:21;;;;;;;5.38;2.60;;;;;;;13.69;66.68;96863.98;127914;1093;22802;-91
2021/06/13 08:15:53;;;;;;;5.13;2.70;;;;;;;14.33;67.20;96847.11;127833;1093;113609;-89
2021/06/13 08:18:25;;;;;;;3.45;2.10;;;;;;;14.77;64.72;96854.52;127967;1093;22844;-89
2021/06/13 08:20:57;;;;;;;3.65;2.23;;;;;;;14.98;62.90;96832.75;127790;1093;113509;-90
2021/06/13 08:23:32;;;;;;;3.15;1.98;;;;;;;14.67;61.03;96828.06;127866;1093;23276;-88
2021/06/13 08:26:04;;;;;;;5.58;2.48;;;;;;;14.43;62.25;96872.80;127869;1093;24604;-86
2021/06/13 08:28:36;;;;;;;6.18;2.75;;;;;;;14.46;62.35;96854.34;127820;1092;113378;-86
2021/06/13 08:31:08;;;;;;;4.43;2.40;;;;;;;14.89;61.55;96866.58;127948;1093;26396;-86
2021/06/13 08:33:40;;;;;;;5.05;2.45;;;;;;;15.04;61.05;96859.02;127842;1093;113478;-86
2021/06/13 08:36:12;;;;;;;4.80;2.80;;;;;;;15.34;60.38;96862.10;127938;1093;23366;-86
2021/06/13 08:38:43;;;;;;;4.28;2.03;;;;;;;14.85;59.42;96851.16;127760;1093;113687;-87
2021/06/13 08:41:17;;;;;;;4.38;2.30;;;;;;;14.39;60.58;96863.82;127868;1093;55321;-87
2021/06/13 08:43:50;;;;;;;4.13;2.35;;;;;;;14.10;61.66;96854.22;127941;1093;24462;-85
2021/06/13 08:46:23;;;;;;;4.73;2.48;;;;;;;13.85;62.00;96889.30;127901;1093;113496;-86
2021/06/13 08:48:55;;;;;;;8.30;2.65;;;;;;;13.69;61.98;96872.77;128060;1093;30442;-86
2021/06/13 08:51:27;;;;;;;5.10;2.17;;;;;;;13.44;62.00;96892.59;127864;1093;113548;-84
2021/06/13 08:53:58;;;;;;;4.83;2.13;;;;;;;13.31;62.92;96899.44;127929;1092;36776;-85
2021/06/13 08:56:30;;;;;;;5.13;2.20;;;;;;;13.28;62.96;96889.37;127815;1093;113728;-87
2021/06/13 08:59:02;;;;;;;3.98;2.28;;;;;;;13.48;63.41;96876.82;128199;1092;46064;-84
2021/06/13 09:01:36;;;;;;;7.75;2.60;;;;;;;13.90;63.26;96882.00;128015;1092;48411;-85
2021/06/13 09:04:09;;;;;;;3.63;2.33;;;;;;;14.26;62.11;96865.39;128090;1092;114325;-84
2021/06/13 09:06:41;;;;;;;4.10;2.30;;;;;;;14.34;61.96;96893.23;128173;1092;22811;-85
2021/06/13 09:09:24;;;;;;;4.30;2.25;;;;;;;14.57;61.57;96881.63;128098;1093;113907;-85
2021/06/13 09:12:04;;;;;;;4.03;2.30;;;;;;;14.50;61.57;96889.25;128226;1093;22818;-85
2021/06/13 09:14:40;;;;;;;6.03;2.28;;;;;;;14.25;61.08;96888.59;128346;1091;114143;-84
2021/06/13 09:17:20;;;;;;;4.80;2.00;;;;;;;14.05;60.97;96880.95;128103;1092;61964;-85
2021/06/13 09:20:21;;;;;;;3.63;1.70;;;;;;;13.87;60.82;96903.13;128291;1092;27949;-85
2021/06/13 09:23:15;;;;;;;2.08;1.40;;;;;;;13.62;59.23;96875.00;128135;1092;114362;-86
2021/06/13 09:25:48;;;;;;;3.75;1.28;;;;;;;13.52;59.31;96897.28;128142;1093;41062;-86
2021/06/13 09:28:22;;;;;;;2.75;2.00;;;;;;;13.46;59.78;96901.08;128091;1092;113723;-84
2021/06/13 09:30:54;;;;;;;5.05;2.10;;;;;;;13.44;59.84;96908.58;128351;1093;29061;-87
2021/06/13 09:33:28;;;;;;;2.55;1.58;;;;;;;13.51;60.27;96884.23;128011;1092;113585;-85
2021/06/13 09:36:03;;;;;;;4.08;2.00;;;;;;;13.60;60.33;96917.92;128203;1093;51047;-84
2021/06/13 09:38:37;;;;;;;5.45;2.20;;;;;;;13.63;60.46;96917.33;128001;1093;114061;-83
2021/06/13 09:41:13;;;;;;;2.63;1.68;;;;;;;13.71;60.23;96896.45;127757;1091;25881;-85
2021/06/13 09:43:47;;;;;;;5.68;2.15;;;;;;;13.60;60.31;96904.59;127842;1093;22796;-86
2021/06/13 09:46:21;;;;;;;5.65;2.10;;;;;;;13.52;60.81;96931.91;127703;1093;114139;-86
2021/06/13 09:48:55;;;;;;;3.68;1.83;;;;;;;13.54;61.15;96932.41;128053;1092;27809;-85
2021/06/13 09:51:32;;;;;;;4.63;2.13;;;;;;;13.54;61.56;96924.41;129771;1093;113440;-85
2021/06/13 09:54:06;;;;;;;8.03;2.78;;;;;;;13.47;61.42;96934.63;128271;1092;31144;-85
2021/06/13 09:56:39;;;;;;;3.80;2.03;;;;;;;13.42;61.29;96932.05;127801;1093;114206;-87
2021/06/13 09:59:13;;;;;;;3.60;2.25;;;;;;;13.32;60.89;96926.86;127921;1093;26414;-86
2021/06/13 10:01:46;;;;;;;4.38;2.08;;;;;;;13.19;60.74;96943.53;127740;1092;111088;-85
2021/06/13 10:04:30;;;;;;;6.40;2.48;;;;;;;13.07;60.78;96936.72;127861;1089;113689;-87
2021/06/13 10:07:23;;;;;;;3.20;1.83;;;;;;;12.96;61.18;96940.61;127867;1093;37718;-86
2021/06/13 10:09:56;;;;;;;5.15;2.05;;;;;;;12.91;61.74;96953.95;127734;1093;114257;-85
2021/06/13 10:12:27;;;;;;;4.68;2.40;;;;;;;12.91;62.09;96953.17;127862;1093;23397;-84
2021/06/13 10:15:11;;;;;;;6.23;2.25;;;;;;;13.01;62.39;96953.05;127901;1093;114021;-86
2021/06/13 10:17:44;;;;;;;3.65;2.33;;;;;;;13.17;61.81;96943.00;127974;1093;23995;-85
2021/06/13 10:20:26;;;;;;;7.70;2.30;;;;;;;13.29;62.64;96959.39;127930;1093;22903;-86
2021/06/13 10:22:58;;;;;;;6.40;2.65;;;;;;;13.67;62.76;96949.54;125682;1093;2591860;-85
2021/06/13 10:25:29;;;;;;;4.35;2.10;;;;;;;13.89;61.20;96947.05;127868;1092;22802;-83
2021/06/13 10:28:02;;;;;;;3.70;2.48;;;;;;;13.87;61.17;96970.53;127877;1093;113462;-84
2021/06/13 10:30:33;;;;;;;3.90;2.38;;;;;;;13.91;60.25;96966.20;127909;1093;23066;-83
2021/06/13 10:33:06;;;;;;;3.70;1.95;;;;;;;13.76;58.55;96974.43;127765;1093;113704;-88
2021/06/13 10:35:41;;;;;;;6.73;2.75;;;;;;;13.56;58.63;96975.53;127856;1093;24221;-90
2021/06/13 10:38:13;;;;;;;4.53;2.30;;;;;;;13.51;59.28;96983.59;127879;1093;42841;-91
2021/06/13 10:40:45;;;;;;;3.58;2.10;;;;;;;13.54;59.14;96983.02;127825;1093;113898;-94
2021/06/13 10:43:27;;;;;;;7.10;2.60;;;;;;;13.50;59.11;96987.31;127852;1093;26310;-93
2021/06/13 10:46:09;;;;;;;2.13;1.83;;;;;;;13.52;59.81;96982.52;127746;1093;113683;-94
2021/06/13 10:48:48;;;;;;;5.28;2.18;;;;;;;13.57;59.82;96987.77;127851;1093;82530;-93
2021/06/13 10:51:40;;;;;;;5.08;2.18;;;;;;;13.65;60.34;96980.98;127861;1091;114171;-94
2021/06/13 10:54:26;;;;;;;5.28;2.08;;;;;;;13.70;59.32;96961.48;127924;1093;40937;-94
2021/06/13 10:57:12;;;;;;;6.58;2.13;;;;;;;13.71;59.56;96963.86;127820;1091;113720;-95
2021/06/13 10:59:45;;;;;;;3.05;2.00;;;;;;;13.83;59.75;96976.75;127884;1093;39080;-96
2021/06/13 11:02:21;;;;;;;2.13;1.75;;;;;;;13.99;58.83;96966.64;127852;1093;74643;-93
2021/06/13 11:04:55;;;;;;;3.40;1.93;;;;;;;14.06;58.15;96959.05;127897;1092;113536;-93
2021/06/13 11:07:59;;;;;;;2.20;1.80;;;;;;;14.21;58.85;96964.91;127965;1093;34528;-93
2021/06/13 11:10:37;;;;;;;4.28;1.85;;;;;;;14.50;58.17;96959.41;127814;1093;113918;-96
2021/06/13 11:13:25;;;;;;;4.25;2.35;;;;;;;14.67;57.03;96956.16;127979;1093;30693;-94
2021/06/13 11:16:12;;;;;;;5.58;2.45;;;;;;;14.76;57.48;96977.59;127876;1093;113906;-96
2021/06/13 11:18:45;;;;;;;5.45;1.93;;;;;;;14.95;57.19;96972.18;127866;1093;54405;-94
2021/06/13 11:21:24;;;;;;;2.30;1.88;;;;;;;15.09;55.97;96963.08;127722;1093;113888;-96
2021/06/13 11:23:57;;;;;;;4.48;2.00;;;;;;;15.17;55.42;96974.92;127837;1093;157895;-93
2021/06/13 11:26:42;;;;;;;5.23;1.85;;;;;;;15.34;53.78;96944.91;127854;1093;54146;-96
2021/06/13 11:29:16;;;;;;;7.33;1.80;;;;;;;15.18;52.66;96968.48;127807;1093;113359;-92
2021/06/13 11:31:53;;;;;;;4.60;2.25;;;;;;;15.20;52.74;96971.68;127899;1093;36762;-94
2021/06/13 11:34:25;;;;;;;5.68;1.88;;;;;;;15.28;52.60;96978.97;127805;1092;114456;-92
2021/06/13 11:36:57;;;;;;;3.05;1.95;;;;;;;15.22;52.45;96977.51;128013;1093;40446;-95
2021/06/13 11:39:31;;;;;;;4.26;2.20;;;;;;;15.23;52.41;96965.73;125743;1093;2700734;-94
2021/06/13 11:42:15;;;;;;;4.48;1.95;;;;;;;15.36;52.55;96972.94;127864;1093;33287;-96
2021/06/13 11:44:49;;;;;;;2.53;1.68;;;;;;;15.39;52.97;96975.00;127837;1093;72288;-91
2021/06/13 11:47:37;;;;;;;40.78;26.63;;;;;;;15.26;53.27;96978.48;127839;1093;113252;-90
2021/06/13 11:50:13;;;;;;;10.85;8.75;;;;;;;15.37;53.83;96961.16;127950;1093;24305;-91
2021/06/13 11:53:00;;;;;;;9.85;6.18;;;;;;;15.26;53.86;96967.80;127871;1093;114779;-88